Time;durP1;ratioP1;P1;durP2;ratioP2;P2;SDS_P1;SDS_P2;PMS_P1;PMS_P2;Temp;Humidity;BMP_temperature;BMP_pressure;BME280_temperature;BME280_humidity;BME280_pressure;Samples;Min_cycle;Max_cycle;Signal;HPM_P1;HPM_P2
2023/11/03 00:00:14;;;;;;;;;0.00;0.00;;;;;;;;5075257;28;9854;-83
2023/11/03 00:05:54;;;;;;;;;0.00;0.00;;;;;;;;5000891;28;10078;-84
2023/11/03 00:08:23;;;;;;;;;0.00;0.00;;;;;;;;5037582;28;10007;-84
2023/11/03 00:10:51;;;;;;;;;0.00;0.00;;;;;;;;5037781;28;9860;-82
2023/11/03 00:13:19;;;;;;;;;0.00;0.00;;;;;;;;5037709;28;10013;-84
2023/11/03 00:15:57;;;;;;;;;0.50;0.00;;;;;;;;5050462;28;10121;-84
2023/11/03 00:18:26;;;;;;;;;0.50;0.50;;;;;;;;5050197;28;9999;-84
2023/11/03 00:20:55;;;;;;;;;0.00;0.00;;;;;;;;5050618;28;10000;-83
2023/11/03 00:23:23;;;;;;;;;0.00;0.00;;;;;;;;5050043;28;9916;-84
2023/11/03 00:25:51;;;;;;;;;0.75;0.75;;;;;;;;5050511;28;9899;-83
2023/11/03 00:28:18;;;;;;;;;0.00;0.00;;;;;;;;5050155;28;10018;-83
2023/11/03 00:30:45;;;;;;;;;0.00;0.00;;;;;;;;5049539;28;9877;-84
2023/11/03 00:33:17;;;;;;;;;2.00;0.00;;;;;;;;5050352;28;9838;-83
2023/11/03 00:35:46;;;;;;;;;0.00;0.00;;;;;;;;5049598;28;9913;-85
2023/11/03 00:38:15;;;;;;;;;0.00;0.00;;;;;;;;5049492;28;9922;-83
2023/11/03 00:40:42;;;;;;;;;2.00;0.00;;;;;;;;5049764;28;9922;-83
2023/11/03 00:43:10;;;;;;;;;0.00;0.00;;;;;;;;5050611;28;9994;-82
2023/11/03 00:45:37;;;;;;;;;0.00;0.00;;;;;;;;5050373;28;10127;-84
2023/11/03 00:48:07;;;;;;;;;0.00;0.00;;;;;;;;5050182;28;9932;-84
2023/11/03 00:50:34;;;;;;;;;0.00;0.00;;;;;;;;5038602;28;9987;-84
2023/11/03 00:53:02;;;;;;;;;0.00;0.00;;;;;;;;5073682;28;9981;-83
2023/11/03 00:55:30;;;;;;;;;0.00;0.00;;;;;;;;5058899;28;10039;-83
2023/11/03 00:57:59;;;;;;;;;1.25;0.00;;;;;;;;5048984;28;10055;-84
2023/11/03 01:00:28;;;;;;;;;1.00;0.00;;;;;;;;5030530;28;10039;-84
2023/11/03 01:02:55;;;;;;;;;0.00;0.00;;;;;;;;5043559;28;10056;-82
2023/11/03 01:05:23;;;;;;;;;0.00;0.00;;;;;;;;5040848;28;9926;-84
2023/11/03 01:07:52;;;;;;;;;0.00;0.00;;;;;;;;5050512;28;9979;-83
2023/11/03 01:10:22;;;;;;;;;0.00;0.00;;;;;;;;5041385;28;10766;-84
2023/11/03 01:12:51;;;;;;;;;0.75;0.00;;;;;;;;5047971;28;11099;-82
2023/11/03 01:15:19;;;;;;;;;0.00;0.00;;;;;;;;5049875;28;10065;-84
2023/11/03 01:17:49;;;;;;;;;0.25;0.25;;;;;;;;5049932;28;10047;-84
2023/11/03 01:20:19;;;;;;;;;0.00;0.00;;;;;;;;5051240;28;10108;-83
2023/11/03 01:22:48;;;;;;;;;0.00;0.00;;;;;;;;5041099;28;10143;-83
2023/11/03 01:25:15;;;;;;;;;0.25;0.00;;;;;;;;5055498;28;10159;-83
2023/11/03 01:27:43;;;;;;;;;0.00;0.00;;;;;;;;5053046;28;10057;-82
2023/11/03 01:30:13;;;;;;;;;0.00;0.00;;;;;;;;5037825;28;10162;-82
2023/11/03 01:32:41;;;;;;;;;0.00;0.00;;;;;;;;5053656;28;10123;-83
2023/11/03 01:35:10;;;;;;;;;1.00;0.00;;;;;;;;5056260;28;10168;-83
2023/11/03 01:37:37;;;;;;;;;0.00;0.00;;;;;;;;5049749;28;10104;-82
2023/11/03 01:40:08;;;;;;;;;0.00;0.00;;;;;;;;5049605;28;10036;-83
2023/11/03 01:42:35;;;;;;;;;0.00;0.00;;;;;;;;5022074;28;9990;-82
2023/11/03 01:45:04;;;;;;;;;0.00;0.00;;;;;;;;5048146;28;9838;-83
2023/11/03 01:47:33;;;;;;;;;1.00;0.00;;;;;;;;5052375;28;9907;-82
2023/11/03 01:50:02;;;;;;;;;1.50;0.00;;;;;;;;5051284;28;10044;-83
2023/11/03 01:52:31;;;;;;;;;0.00;0.00;;;;;;;;5049283;28;10869;-82
2023/11/03 01:54:58;;;;;;;;;0.00;0.00;;;;;;;;5049109;28;10090;-83
2023/11/03 01:57:26;;;;;;;;;0.00;0.00;;;;;;;;5048794;28;10080;-83
2023/11/03 01:59:53;;;;;;;;;0.00;0.00;;;;;;;;5049502;28;10197;-82
2023/11/03 02:02:21;;;;;;;;;0.00;0.00;;;;;;;;5048989;28;10007;-83
2023/11/03 02:04:50;;;;;;;;;0.00;0.00;;;;;;;;5048701;28;10304;-82
2023/11/03 02:07:17;;;;;;;;;1.00;1.00;;;;;;;;5048369;28;10229;-82
2023/11/03 02:09:45;;;;;;;;;0.00;0.00;;;;;;;;5049018;28;10088;-83
2023/11/03 02:12:12;;;;;;;;;0.00;0.00;;;;;;;;5030394;28;10133;-83
2023/11/03 02:14:39;;;;;;;;;1.50;0.00;;;;;;;;5048514;28;10171;-83
2023/11/03 02:17:06;;;;;;;;;0.50;0.50;;;;;;;;5047818;28;10215;-83
2023/11/03 02:19:34;;;;;;;;;0.00;0.00;;;;;;;;5050694;28;10098;-83
2023/11/03 02:22:02;;;;;;;;;0.00;0.00;;;;;;;;5052209;28;10150;-82
2023/11/03 02:24:32;;;;;;;;;1.50;0.00;;;;;;;;5052029;28;10134;-81
2023/11/03 02:27:01;;;;;;;;;0.00;0.00;;;;;;;;5052514;28;10213;-84
2023/11/03 02:29:29;;;;;;;;;0.00;0.00;;;;;;;;5052592;28;10371;-82
2023/11/03 02:32:00;;;;;;;;;0.00;0.00;;;;;;;;5052498;28;10136;-83
2023/11/03 02:34:27;;;;;;;;;0.00;0.00;;;;;;;;5052853;28;10150;-83
2023/11/03 02:36:57;;;;;;;;;0.00;0.00;;;;;;;;5051655;28;10158;-84
2023/11/03 02:39:25;;;;;;;;;2.00;0.00;;;;;;;;5052624;28;10136;-83
2023/11/03 02:41:57;;;;;;;;;0.00;0.00;;;;;;;;5052033;28;10229;-82
2023/11/03 02:44:24;;;;;;;;;0.00;0.00;;;;;;;;5052600;28;10130;-83
2023/11/03 02:46:51;;;;;;;;;0.00;0.00;;;;;;;;5052486;28;10153;-82
2023/11/03 02:49:19;;;;;;;;;0.00;0.00;;;;;;;;5052878;28;11011;-83
2023/11/03 02:51:46;;;;;;;;;1.00;0.00;;;;;;;;5053340;28;10221;-84
2023/11/03 02:54:14;;;;;;;;;0.00;0.00;;;;;;;;5057779;28;10215;-84
2023/11/03 02:56:41;;;;;;;;;0.00;0.00;;;;;;;;5076179;28;10204;-84
2023/11/03 02:59:10;;;;;;;;;0.00;0.00;;;;;;;;5076964;28;10122;-82
2023/11/03 03:01:40;;;;;;;;;0.00;0.00;;;;;;;;5064611;28;10439;-81
2023/11/03 03:04:08;;;;;;;;;0.00;0.00;;;;;;;;5053090;28;10211;-83
2023/11/03 03:06:36;;;;;;;;;0.50;0.50;;;;;;;;5052209;28;10362;-82
2023/11/03 03:09:03;;;;;;;;;0.00;0.00;;;;;;;;5052506;28;10298;-83
2023/11/03 03:11:30;;;;;;;;;0.25;0.00;;;;;;;;5053946;28;10359;-82
2023/11/03 03:13:59;;;;;;;;;0.00;0.00;;;;;;;;5044827;28;10233;-83
2023/11/03 03:16:30;;;;;;;;;0.00;0.00;;;;;;;;5048810;28;10278;-83
2023/11/03 03:18:57;;;;;;;;;2.00;0.00;;;;;;;;5056028;28;10259;-83
2023/11/03 03:21:24;;;;;;;;;0.00;0.00;;;;;;;;5053076;28;10400;-83
2023/11/03 03:23:52;;;;;;;;;2.00;0.00;;;;;;;;5046036;28;10195;-84
2023/11/03 03:26:19;;;;;;;;;2.00;0.75;;;;;;;;5061247;28;10232;-83
2023/11/03 03:28:46;;;;;;;;;0.00;0.00;;;;;;;;5054993;28;10300;-83
2023/11/03 03:31:19;;;;;;;;;2.00;0.00;;;;;;;;5038760;28;10256;-82
2023/11/03 03:33:50;;;;;;;;;0.00;0.00;;;;;;;;5052939;28;10321;-82
2023/11/03 03:36:17;;;;;;;;;0.00;0.00;;;;;;;;5043897;28;10907;-82
2023/11/03 03:38:45;;;;;;;;;0.00;0.00;;;;;;;;5052156;28;10349;-83
2023/11/03 03:41:13;;;;;;;;;0.00;0.00;;;;;;;;5051642;28;10229;-83
2023/11/03 03:43:41;;;;;;;;;0.00;0.00;;;;;;;;5050556;28;10406;-83
2023/11/03 03:46:08;;;;;;;;;0.00;0.00;;;;;;;;5050958;28;10553;-83
2023/11/03 03:48:38;;;;;;;;;0.00;0.00;;;;;;;;5050703;28;10357;-84
2023/11/03 03:51:10;;;;;;;;;1.00;0.25;;;;;;;;5050654;28;10199;-83
2023/11/03 03:53:37;;;;;;;;;0.00;0.00;;;;;;;;5051285;28;10296;-84
2023/11/03 03:56:08;;;;;;;;;0.75;0.75;;;;;;;;5050572;28;10308;-84
2023/11/03 03:58:38;;;;;;;;;0.75;0.75;;;;;;;;5050860;28;10408;-83
2023/11/03 04:01:05;;;;;;;;;0.00;0.00;;;;;;;;5050388;28;10359;-82
2023/11/03 04:03:32;;;;;;;;;0.00;0.00;;;;;;;;5050212;28;10301;-84
2023/11/03 04:06:00;;;;;;;;;1.50;1.50;;;;;;;;5050486;28;10321;-84
2023/11/03 04:08:31;;;;;;;;;2.00;0.00;;;;;;;;5050704;28;10371;-84
2023/11/03 04:11:00;;;;;;;;;0.00;0.00;;;;;;;;5051050;28;10390;-82
2023/11/03 04:13:27;;;;;;;;;0.00;0.00;;;;;;;;5050736;28;10391;-83
2023/11/03 04:15:54;;;;;;;;;0.00;0.00;;;;;;;;5050101;28;10384;-82
2023/11/03 04:18:22;;;;;;;;;0.50;0.50;;;;;;;;5050269;28;10438;-84
2023/11/03 04:20:49;;;;;;;;;2.00;0.00;;;;;;;;5049789;28;10411;-82
2023/11/03 04:23:17;;;;;;;;;0.00;0.00;;;;;;;;5038875;28;10573;-83
2023/11/03 04:25:45;;;;;;;;;0.00;0.00;;;;;;;;5048862;28;10379;-84
2023/11/03 04:28:14;;;;;;;;;1.00;0.00;;;;;;;;5050424;28;10416;-83
2023/11/03 04:30:47;;;;;;;;;0.25;0.25;;;;;;;;5049789;28;10441;-84
2023/11/03 04:33:17;;;;;;;;;2.00;0.00;;;;;;;;5050116;28;10392;-84
2023/11/03 04:35:46;;;;;;;;;1.00;0.00;;;;;;;;5044304;28;10224;-84
2023/11/03 04:38:13;;;;;;;;;0.00;0.00;;;;;;;;5044252;28;10364;-82
2023/11/03 04:40:41;;;;;;;;;0.00;0.00;;;;;;;;5050059;28;10385;-83
2023/11/03 04:43:09;;;;;;;;;0.75;0.75;;;;;;;;5049498;28;10376;-83
2023/11/03 04:45:36;;;;;;;;;0.00;0.00;;;;;;;;5050286;28;10293;-84
2023/11/03 04:48:04;;;;;;;;;1.25;0.00;;;;;;;;5030088;28;10365;-84
2023/11/03 04:50:31;;;;;;;;;0.00;0.00;;;;;;;;5038111;28;10374;-81
2023/11/03 04:52:59;;;;;;;;;0.50;0.50;;;;;;;;5049730;28;10350;-84
2023/11/03 04:55:31;;;;;;;;;0.00;0.00;;;;;;;;5049183;28;10533;-89
2023/11/03 04:58:02;;;;;;;;;1.00;0.00;;;;;;;;5049206;28;10486;-83
2023/11/03 05:00:31;;;;;;;;;2.00;0.00;;;;;;;;5051820;28;10574;-85
2023/11/03 05:03:01;;;;;;;;;1.50;0.00;;;;;;;;5036433;28;10462;-87
2023/11/03 05:05:32;;;;;;;;;2.00;0.00;;;;;;;;5054993;28;10426;-81
2023/11/03 05:08:02;;;;;;;;;0.50;0.00;;;;;;;;5054522;28;10460;-82
2023/11/03 05:10:30;;;;;;;;;0.00;0.00;;;;;;;;5055735;28;10487;-82
2023/11/03 05:12:57;;;;;;;;;0.00;0.00;;;;;;;;5054611;28;10406;-81
2023/11/03 05:15:25;;;;;;;;;0.00;0.00;;;;;;;;5054845;28;10589;-82
2023/11/03 05:17:53;;;;;;;;;0.00;0.00;;;;;;;;5042587;28;10636;-82
2023/11/03 05:20:21;;;;;;;;;1.75;0.00;;;;;;;;5049021;28;10528;-83
2023/11/03 05:22:49;;;;;;;;;0.00;0.00;;;;;;;;5042675;28;10534;-82
2023/11/03 05:25:17;;;;;;;;;2.00;0.00;;;;;;;;5052636;28;10610;-81
2023/11/03 05:27:44;;;;;;;;;0.00;0.00;;;;;;;;5043784;28;10667;-82
2023/11/03 05:30:12;;;;;;;;;0.00;0.00;;;;;;;;5047997;28;10516;-82
2023/11/03 05:32:39;;;;;;;;;0.00;0.00;;;;;;;;5048797;28;10457;-81
2023/11/03 05:35:09;;;;;;;;;2.00;0.25;;;;;;;;5047097;28;10537;-81
2023/11/03 05:37:36;;;;;;;;;0.25;0.00;;;;;;;;5037530;28;10506;-84
2023/11/03 05:40:05;;;;;;;;;0.00;0.00;;;;;;;;5047297;28;10445;-83
2023/11/03 05:42:33;;;;;;;;;1.25;0.00;;;;;;;;5049858;28;10438;-84
2023/11/03 05:45:01;;;;;;;;;1.25;1.25;;;;;;;;5062095;28;10395;-84
2023/11/03 05:47:28;;;;;;;;;0.50;0.00;;;;;;;;5069241;28;10351;-82
2023/11/03 05:49:55;;;;;;;;;2.00;0.00;;;;;;;;5050174;28;10491;-82
2023/11/03 05:52:24;;;;;;;;;0.00;0.00;;;;;;;;5050679;28;10507;-82
2023/11/03 05:54:52;;;;;;;;;0.00;0.00;;;;;;;;5059110;28;10512;-82
2023/11/03 05:57:19;;;;;;;;;0.00;0.00;;;;;;;;5076798;28;10731;-77
2023/11/03 05:59:46;;;;;;;;;2.00;2.00;;;;;;;;5073805;28;10442;-75
2023/11/03 06:02:13;;;;;;;;;2.00;1.00;;;;;;;;5060211;28;11316;-81
2023/11/03 06:04:41;;;;;;;;;0.00;0.00;;;;;;;;5053438;28;11197;-82
2023/11/03 06:07:09;;;;;;;;;0.00;0.00;;;;;;;;5043608;28;11160;-82
2023/11/03 06:09:38;;;;;;;;;1.00;0.00;;;;;;;;5044809;28;10443;-84
2023/11/03 06:12:06;;;;;;;;;0.00;0.00;;;;;;;;5052001;28;10444;-80
2023/11/03 06:14:34;;;;;;;;;1.00;0.00;;;;;;;;5051076;28;10556;-81
2023/11/03 06:17:01;;;;;;;;;0.25;0.00;;;;;;;;5051411;28;10482;-77
2023/11/03 06:19:30;;;;;;;;;3.75;0.00;;;;;;;;5051622;28;10543;-78
2023/11/03 06:21:58;;;;;;;;;4.00;1.00;;;;;;;;5051986;28;10522;-76
2023/11/03 06:24:25;;;;;;;;;4.00;0.50;;;;;;;;5050623;28;10585;-78
2023/11/03 06:26:58;;;;;;;;;0.50;0.50;;;;;;;;5051308;28;10577;-77
2023/11/03 06:29:26;;;;;;;;;0.00;0.00;;;;;;;;5047954;28;10601;-78
2023/11/03 06:31:54;;;;;;;;;2.00;0.50;;;;;;;;5051168;28;11326;-78
2023/11/03 06:34:21;;;;;;;;;1.25;0.50;;;;;;;;5040143;28;10587;-79
2023/11/03 06:36:48;;;;;;;;;0.00;0.00;;;;;;;;5038919;28;10425;-80
2023/11/03 06:39:18;;;;;;;;;1.00;1.00;;;;;;;;5051330;28;10509;-82
2023/11/03 06:41:45;;;;;;;;;0.00;0.00;;;;;;;;5051647;28;10448;-83
2023/11/03 06:44:14;;;;;;;;;0.00;0.00;;;;;;;;5041136;28;10619;-81
2023/11/03 06:46:42;;;;;;;;;2.25;0.75;;;;;;;;5049190;28;10515;-81
2023/11/03 06:49:09;;;;;;;;;1.00;0.00;;;;;;;;5053166;28;10468;-82
2023/11/03 06:51:36;;;;;;;;;1.50;0.75;;;;;;;;5054467;28;10644;-81
2023/11/03 06:54:04;;;;;;;;;0.25;0.00;;;;;;;;5054189;28;10519;-76
2023/11/03 06:56:32;;;;;;;;;0.00;0.00;;;;;;;;5053376;28;10444;-77
2023/11/03 06:59:02;;;;;;;;;0.50;0.50;;;;;;;;5054039;28;10454;-76
2023/11/03 07:01:31;;;;;;;;;2.00;0.00;;;;;;;;5052832;28;10522;-75
2023/11/03 07:04:00;;;;;;;;;1.50;0.00;;;;;;;;5051957;28;10678;-79
2023/11/03 07:06:27;;;;;;;;;2.00;0.00;;;;;;;;5051177;28;10606;-77
2023/11/03 07:08:59;;;;;;;;;0.00;0.00;;;;;;;;5051694;28;10519;-78
2023/11/03 07:11:26;;;;;;;;;1.00;1.00;;;;;;;;5052083;28;10590;-77
2023/11/03 07:13:54;;;;;;;;;1.00;1.00;;;;;;;;5052441;28;10669;-75
2023/11/03 07:16:22;;;;;;;;;2.00;1.00;;;;;;;;5050055;28;10541;-77
2023/11/03 07:18:52;;;;;;;;;1.00;0.25;;;;;;;;5049694;28;10534;-76
2023/11/03 07:21:20;;;;;;;;;0.50;0.50;;;;;;;;5040910;28;10652;-74
2023/11/03 07:23:47;;;;;;;;;2.00;1.00;;;;;;;;5051308;28;10530;-76
2023/11/03 07:26:15;;;;;;;;;1.00;1.00;;;;;;;;5050020;28;10608;-76
2023/11/03 07:28:45;;;;;;;;;0.00;0.00;;;;;;;;5050067;28;10594;-77
2023/11/03 07:31:12;;;;;;;;;2.00;2.00;;;;;;;;5049912;28;10522;-77
2023/11/03 07:33:43;;;;;;;;;2.25;2.00;;;;;;;;5049588;28;10673;-77
2023/11/03 07:36:12;;;;;;;;;1.50;1.50;;;;;;;;5040157;28;10542;-80
2023/11/03 07:38:40;;;;;;;;;2.50;1.25;;;;;;;;5047008;28;10432;-80
2023/11/03 07:41:08;;;;;;;;;1.25;1.25;;;;;;;;5049413;28;10575;-77
2023/11/03 07:43:39;;;;;;;;;0.00;0.00;;;;;;;;5049533;28;10614;-79
2023/11/03 07:46:06;;;;;;;;;3.00;1.25;;;;;;;;5049361;28;11235;-79
2023/11/03 07:48:33;;;;;;;;;0.00;0.00;;;;;;;;5049505;28;10953;-80
2023/11/03 07:51:02;;;;;;;;;1.00;1.00;;;;;;;;5049371;28;10416;-79
2023/11/03 07:53:30;;;;;;;;;3.00;1.00;;;;;;;;5049448;28;10529;-75
2023/11/03 07:55:59;;;;;;;;;0.00;0.00;;;;;;;;5049608;28;10376;-78
2023/11/03 07:58:27;;;;;;;;;1.00;1.00;;;;;;;;5049683;28;10292;-78
2023/11/03 08:00:56;;;;;;;;;1.50;1.50;;;;;;;;5031028;28;10241;-76
2023/11/03 08:03:24;;;;;;;;;1.00;1.00;;;;;;;;5049880;28;10231;-78
2023/11/03 08:05:52;;;;;;;;;0.00;0.00;;;;;;;;5048544;28;10222;-76
2023/11/03 08:08:19;;;;;;;;;2.75;1.75;;;;;;;;5048912;28;10718;-77
2023/11/03 08:10:50;;;;;;;;;0.75;0.75;;;;;;;;5048794;28;10307;-78
2023/11/03 08:13:17;;;;;;;;;0.00;0.00;;;;;;;;5049420;28;10379;-78
2023/11/03 08:15:44;;;;;;;;;1.00;1.00;;;;;;;;5049651;28;10147;-79
2023/11/03 08:18:12;;;;;;;;;3.00;0.00;;;;;;;;5056655;28;10277;-75
2023/11/03 08:20:39;;;;;;;;;1.00;0.00;;;;;;;;5069902;28;10150;-79
2023/11/03 08:23:06;;;;;;;;;2.00;1.00;;;;;;;;5051026;28;10285;-75
2023/11/03 08:25:34;;;;;;;;;1.00;1.00;;;;;;;;5050053;28;11322;-78
2023/11/03 08:28:03;;;;;;;;;1.50;1.50;;;;;;;;5049197;28;10413;-78
2023/11/03 08:30:33;;;;;;;;;2.00;1.00;;;;;;;;5050044;28;10387;-77
2023/11/03 08:33:01;;;;;;;;;0.00;0.00;;;;;;;;5051454;28;10244;-76
2023/11/03 08:35:30;;;;;;;;;1.25;0.25;;;;;;;;5049353;28;10100;-80
2023/11/03 08:38:00;;;;;;;;;2.00;1.00;;;;;;;;5048257;28;10218;-80
2023/11/03 08:40:27;;;;;;;;;1.00;0.00;;;;;;;;5043571;28;10136;-74
2023/11/03 08:42:59;;;;;;;;;3.50;1.00;;;;;;;;5054547;28;10165;-84
2023/11/03 08:45:28;;;;;;;;;0.50;0.50;;;;;;;;5044243;28;10078;-80
2023/11/03 08:47:56;;;;;;;;;1.00;1.00;;;;;;;;5053778;28;10132;-78
2023/11/03 08:50:24;;;;;;;;;2.50;0.75;;;;;;;;5051601;28;10066;-77
2023/11/03 08:52:52;;;;;;;;;3.00;2.00;;;;;;;;5050236;28;10133;-78
2023/11/03 08:55:19;;;;;;;;;0.00;0.00;;;;;;;;5055073;28;10566;-82
2023/11/03 08:57:48;;;;;;;;;2.75;1.00;;;;;;;;5072700;28;9839;-77
2023/11/03 09:00:16;;;;;;;;;2.00;0.50;;;;;;;;5071168;28;9882;-79
2023/11/03 09:02:46;;;;;;;;;2.25;1.00;;;;;;;;5058289;28;9829;-82
2023/11/03 09:05:14;;;;;;;;;1.00;1.00;;;;;;;;5049349;28;9685;-82
2023/11/03 09:07:43;;;;;;;;;2.00;0.00;;;;;;;;5049022;28;10395;-85
2023/11/03 09:10:11;;;;;;;;;1.75;1.00;;;;;;;;5043709;28;9679;-77
2023/11/03 09:12:40;;;;;;;;;1.00;0.00;;;;;;;;5045579;28;9613;-81
2023/11/03 09:15:08;;;;;;;;;2.00;0.25;;;;;;;;5042212;28;9629;-80
2023/11/03 09:17:37;;;;;;;;;1.25;0.75;;;;;;;;5046945;28;9392;-81
2023/11/03 09:20:07;;;;;;;;;0.00;0.00;;;;;;;;5042584;28;9588;-79
2023/11/03 09:22:34;;;;;;;;;0.00;0.00;;;;;;;;5047676;28;9605;-81
2023/11/03 09:25:03;;;;;;;;;2.25;1.00;;;;;;;;5043251;28;9395;-77
2023/11/03 09:27:31;;;;;;;;;3.50;1.00;;;;;;;;5048310;28;9574;-86
2023/11/03 09:30:00;;;;;;;;;0.00;0.00;;;;;;;;5052564;28;9455;-84
2023/11/03 09:32:28;;;;;;;;;1.00;1.00;;;;;;;;5053605;28;9238;-83
2023/11/03 09:35:01;;;;;;;;;0.00;0.00;;;;;;;;5053175;28;9329;-81
2023/11/03 09:37:31;;;;;;;;;0.00;0.00;;;;;;;;5052996;28;9324;-77
2023/11/03 09:39:58;;;;;;;;;1.00;1.00;;;;;;;;5052375;28;9397;-84
2023/11/03 09:42:34;;;;;;;;;3.00;2.00;;;;;;;;5052992;28;9478;-83
2023/11/03 09:45:04;;;;;;;;;0.00;0.00;;;;;;;;5052534;28;9369;-83
2023/11/03 09:47:31;;;;;;;;;1.00;1.00;;;;;;;;5052592;28;9502;-81
2023/11/03 09:50:01;;;;;;;;;1.00;0.75;;;;;;;;5052209;28;9315;-82
2023/11/03 09:52:36;;;;;;;;;0.00;0.00;;;;;;;;5052946;28;9546;-83
2023/11/03 09:55:07;;;;;;;;;0.00;0.00;;;;;;;;5052432;28;9389;-85
2023/11/03 09:57:34;;;;;;;;;1.00;1.00;;;;;;;;5052575;28;9293;-79
2023/11/03 10:00:03;;;;;;;;;0.00;0.00;;;;;;;;5046039;28;9401;-79
2023/11/03 10:02:31;;;;;;;;;4.00;0.33;;;;;;;;5052002;28;9350;-78
2023/11/03 10:05:04;;;;;;;;;0.00;0.00;;;;;;;;5053057;28;9171;-79
2023/11/03 10:07:35;;;;;;;;;0.00;0.00;;;;;;;;5046501;28;9272;-78
2023/11/03 10:10:07;;;;;;;;;0.33;0.33;;;;;;;;5044669;28;9229;-83
2023/11/03 10:12:34;;;;;;;;;1.00;1.00;;;;;;;;5052534;28;9322;-84
2023/11/03 10:15:05;;;;;;;;;0.00;0.00;;;;;;;;5052747;28;9165;-83
2023/11/03 10:17:32;;;;;;;;;1.00;0.00;;;;;;;;5052319;28;9186;-84
2023/11/03 10:20:00;;;;;;;;;0.00;0.00;;;;;;;;5047706;28;9137;-78
2023/11/03 10:22:28;;;;;;;;;0.00;0.00;;;;;;;;5049197;28;9076;-82
2023/11/03 10:25:00;;;;;;;;;0.33;0.00;;;;;;;;5057753;28;9165;-79
2023/11/03 10:27:27;;;;;;;;;0.00;0.00;;;;;;;;5058098;28;9093;-82
2023/11/03 10:29:54;;;;;;;;;0.00;0.00;;;;;;;;5057084;28;9148;-79
2023/11/03 10:32:22;;;;;;;;;0.00;0.00;;;;;;;;5055828;28;9129;-82
2023/11/03 10:34:52;;;;;;;;;2.00;0.00;;;;;;;;5057081;28;9042;-80
2023/11/03 10:37:21;;;;;;;;;1.00;1.00;;;;;;;;5049103;28;9015;-76
2023/11/03 10:39:49;;;;;;;;;0.00;0.00;;;;;;;;5042018;28;9095;-77
2023/11/03 10:42:24;;;;;;;;;0.00;0.00;;;;;;;;5051489;28;9157;-81
2023/11/03 10:44:52;;;;;;;;;0.00;0.00;;;;;;;;5051682;28;9003;-79
2023/11/03 10:47:25;;;;;;;;;0.00;0.00;;;;;;;;5054010;28;9018;-76
2023/11/03 10:50:05;;;;;;;;;0.00;0.00;;;;;;;;5062703;28;9013;-87
2023/11/03 10:52:41;;;;;;;;;1.75;0.00;;;;;;;;5064639;28;8927;-75
2023/11/03 10:55:14;;;;;;;;;1.00;1.00;;;;;;;;5053624;28;8968;-77
2023/11/03 10:57:43;;;;;;;;;0.00;0.00;;;;;;;;5053148;28;8860;-81
2023/11/03 11:00:17;;;;;;;;;1.00;1.00;;;;;;;;5042429;28;8844;-77
2023/11/03 11:02:51;;;;;;;;;1.00;0.00;;;;;;;;5049858;28;9765;-76
2023/11/03 11:05:24;;;;;;;;;0.25;0.25;;;;;;;;5044841;28;8871;-79
2023/11/03 11:07:58;;;;;;;;;1.00;1.00;;;;;;;;5049896;28;8824;-85
2023/11/03 11:10:38;;;;;;;;;1.00;1.00;;;;;;;;5052797;28;8828;-76
2023/11/03 11:13:15;;;;;;;;;1.00;1.00;;;;;;;;5040529;28;8894;-79
2023/11/03 11:15:47;;;;;;;;;1.00;1.00;;;;;;;;5050781;28;8836;-76
2023/11/03 11:18:15;;;;;;;;;0.25;0.00;;;;;;;;5050847;28;8952;-78
2023/11/03 11:20:52;;;;;;;;;0.00;0.00;;;;;;;;5050388;28;8829;-77
2023/11/03 11:23:22;;;;;;;;;0.33;0.33;;;;;;;;5052126;28;9282;-82
2023/11/03 11:25:50;;;;;;;;;2.00;0.00;;;;;;;;5058043;28;8986;-83
2023/11/03 11:28:38;;;;;;;;;1.75;1.75;;;;;;;;5058693;28;8856;-89
2023/11/03 11:31:36;;;;;;;;;2.50;1.00;;;;;;;;5051470;28;8847;-83
2023/11/03 11:34:04;;;;;;;;;1.00;1.00;;;;;;;;5043066;28;8970;-81
2023/11/03 11:36:33;;;;;;;;;0.00;0.00;;;;;;;;5051850;28;8848;-80
2023/11/03 11:39:02;;;;;;;;;1.00;1.00;;;;;;;;5053440;28;8851;-81
2023/11/03 11:41:31;;;;;;;;;0.75;0.75;;;;;;;;5074353;28;8906;-75
2023/11/03 11:44:02;;;;;;;;;3.00;2.00;;;;;;;;5069083;28;8876;-84
2023/11/03 11:46:31;;;;;;;;;0.75;0.75;;;;;;;;5052322;28;8875;-75
2023/11/03 11:49:01;;;;;;;;;2.50;1.00;;;;;;;;5051352;28;8872;-80
2023/11/03 11:51:29;;;;;;;;;1.00;1.00;;;;;;;;5051478;28;8860;-86
2023/11/03 11:54:02;;;;;;;;;1.00;1.00;;;;;;;;5051292;28;8850;-85
2023/11/03 11:56:30;;;;;;;;;1.50;1.50;;;;;;;;5049974;28;8850;-82
2023/11/03 11:59:03;;;;;;;;;1.00;1.00;;;;;;;;5042327;28;8867;-80
2023/11/03 12:01:31;;;;;;;;;1.00;1.00;;;;;;;;5053807;28;8848;-84
2023/11/03 12:04:03;;;;;;;;;1.00;1.00;;;;;;;;5057329;28;8945;-84
2023/11/03 12:06:31;;;;;;;;;2.33;1.00;;;;;;;;5052518;28;8840;-80
2023/11/03 12:08:59;;;;;;;;;1.00;1.00;;;;;;;;5054497;28;9010;-74
2023/11/03 12:11:27;;;;;;;;;1.00;1.00;;;;;;;;5054712;28;9034;-84
2023/11/03 12:13:54;;;;;;;;;1.00;1.00;;;;;;;;5056434;28;9025;-82
2023/11/03 12:16:23;;;;;;;;;0.00;0.00;;;;;;;;5054723;28;8844;-79
2023/11/03 12:18:51;;;;;;;;;1.25;1.25;;;;;;;;5054497;28;8963;-77
2023/11/03 12:21:20;;;;;;;;;0.00;0.00;;;;;;;;5054376;28;8864;-77
2023/11/03 12:23:48;;;;;;;;;1.00;1.00;;;;;;;;5051007;28;8840;-82
2023/11/03 12:26:15;;;;;;;;;0.00;0.00;;;;;;;;5050254;28;9001;-84
2023/11/03 12:28:44;;;;;;;;;0.00;0.00;;;;;;;;5044113;28;9004;-80
2023/11/03 12:31:12;;;;;;;;;0.67;0.67;;;;;;;;5052479;28;9043;-79
2023/11/03 12:33:43;;;;;;;;;1.00;1.00;;;;;;;;5050439;28;9004;-85
2023/11/03 12:36:14;;;;;;;;;1.00;0.00;;;;;;;;5039981;28;9108;-80
2023/11/03 12:38:45;;;;;;;;;1.00;1.00;;;;;;;;5047344;28;8951;-82
2023/11/03 12:41:17;;;;;;;;;0.67;0.67;;;;;;;;5048981;28;9104;-77
2023/11/03 12:44:04;;;;;;;;;0.00;0.00;;;;;;;;5049656;28;10015;-89
2023/11/03 12:46:33;;;;;;;;;0.33;0.33;;;;;;;;5048809;28;9180;-81
2023/11/03 12:49:08;;;;;;;;;0.00;0.00;;;;;;;;5050107;28;9327;-82
2023/11/03 12:51:36;;;;;;;;;2.00;1.00;;;;;;;;5048995;28;9174;-81
2023/11/03 12:54:03;;;;;;;;;0.00;0.00;;;;;;;;5051727;28;9249;-78
2023/11/03 12:56:49;;;;;;;;;1.00;1.00;;;;;;;;5050237;28;10015;-83
2023/11/03 12:59:18;;;;;;;;;0.00;0.00;;;;;;;;5049448;28;9413;-81
2023/11/03 13:01:48;;;;;;;;;0.00;0.00;;;;;;;;5051354;28;9266;-82
2023/11/03 13:04:20;;;;;;;;;0.00;0.00;;;;;;;;5060209;28;9184;-76
2023/11/03 13:06:48;;;;;;;;;0.00;0.00;;;;;;;;5048106;28;9079;-83
2023/11/03 13:09:19;;;;;;;;;0.00;0.00;;;;;;;;5049508;28;9115;-89
2023/11/03 13:11:46;;;;;;;;;2.33;2.00;;;;;;;;5050190;28;9008;-86
2023/11/03 13:14:15;;;;;;;;;0.00;0.00;;;;;;;;5049038;28;9153;-77
2023/11/03 13:16:43;;;;;;;;;0.00;0.00;;;;;;;;5049915;28;8983;-89
2023/11/03 13:19:16;;;;;;;;;1.00;1.00;;;;;;;;5049378;28;9066;-78
2023/11/03 13:21:49;;;;;;;;;0.00;0.00;;;;;;;;5049279;28;9000;-80
2023/11/03 13:24:16;;;;;;;;;0.00;0.00;;;;;;;;5048717;28;8836;-80
2023/11/03 13:26:46;;;;;;;;;1.00;1.00;;;;;;;;5048975;28;9005;-86
2023/11/03 13:29:14;;;;;;;;;0.00;0.00;;;;;;;;5042193;28;8911;-89
2023/11/03 13:31:41;;;;;;;;;0.67;0.67;;;;;;;;5035528;28;8975;-79
2023/11/03 13:34:12;;;;;;;;;1.00;1.00;;;;;;;;5048620;28;8944;-81
2023/11/03 13:36:41;;;;;;;;;2.00;2.00;;;;;;;;5036792;28;9174;-90
2023/11/03 13:39:10;;;;;;;;;2.00;0.67;;;;;;;;5049036;28;9168;-80
2023/11/03 13:41:38;;;;;;;;;1.00;1.00;;;;;;;;5049519;28;9063;-88
2023/11/03 13:44:06;;;;;;;;;0.33;0.33;;;;;;;;5049483;28;9122;-81
2023/11/03 13:46:36;;;;;;;;;0.67;0.67;;;;;;;;5049509;28;9125;-85
2023/11/03 13:49:05;;;;;;;;;0.00;0.00;;;;;;;;5050703;28;9196;-86
2023/11/03 13:51:32;;;;;;;;;0.67;0.67;;;;;;;;5052134;28;9071;-83
2023/11/03 13:53:59;;;;;;;;;2.00;1.00;;;;;;;;5053514;28;9853;-80
2023/11/03 13:56:28;;;;;;;;;0.00;0.00;;;;;;;;5051694;28;9017;-85
2023/11/03 13:58:56;;;;;;;;;0.67;0.67;;;;;;;;5047336;28;9192;-83
2023/11/03 14:01:24;;;;;;;;;1.00;1.00;;;;;;;;5053399;28;9194;-88
2023/11/03 14:03:55;;;;;;;;;1.00;0.00;;;;;;;;5054012;28;8952;-81
2023/11/03 14:06:24;;;;;;;;;0.00;0.00;;;;;;;;5053837;28;8910;-77
2023/11/03 14:08:51;;;;;;;;;0.00;0.00;;;;;;;;5050075;28;9161;-85
2023/11/03 14:11:23;;;;;;;;;1.00;1.00;;;;;;;;5049750;28;9225;-87
2023/11/03 14:13:54;;;;;;;;;0.67;0.33;;;;;;;;5050901;28;9094;-78
2023/11/03 14:16:22;;;;;;;;;0.67;0.67;;;;;;;;5054327;28;9005;-76
2023/11/03 14:18:54;;;;;;;;;0.00;0.00;;;;;;;;5063197;28;9056;-79
2023/11/03 14:21:26;;;;;;;;;0.33;0.33;;;;;;;;5075940;28;9029;-74
2023/11/03 14:23:53;;;;;;;;;0.00;0.00;;;;;;;;5073001;28;9090;-78
2023/11/03 14:26:23;;;;;;;;;1.67;0.33;;;;;;;;5054720;28;9181;-84
2023/11/03 14:28:52;;;;;;;;;0.00;0.00;;;;;;;;5052252;28;9928;-77
2023/11/03 14:31:22;;;;;;;;;0.00;0.00;;;;;;;;5051509;28;9945;-75
2023/11/03 14:33:53;;;;;;;;;0.33;0.33;;;;;;;;5051390;28;9448;-78
2023/11/03 14:36:21;;;;;;;;;1.25;1.25;;;;;;;;5040576;28;9332;-82
2023/11/03 14:38:49;;;;;;;;;0.00;0.00;;;;;;;;5037166;28;9310;-77
2023/11/03 14:41:16;;;;;;;;;0.25;0.25;;;;;;;;5051390;28;9396;-76
2023/11/03 14:43:45;;;;;;;;;2.00;1.25;;;;;;;;5050906;28;10245;-78
2023/11/03 14:46:14;;;;;;;;;1.00;0.50;;;;;;;;5051190;28;9372;-83
2023/11/03 14:48:42;;;;;;;;;0.75;0.75;;;;;;;;5045367;28;9631;-88
2023/11/03 14:51:10;;;;;;;;;1.00;1.00;;;;;;;;5043867;28;9539;-84
2023/11/03 14:53:42;;;;;;;;;1.25;1.25;;;;;;;;5040016;28;9628;-85
2023/11/03 14:56:09;;;;;;;;;1.50;1.50;;;;;;;;5050614;28;9473;-82
2023/11/03 14:58:37;;;;;;;;;1.00;1.00;;;;;;;;5040386;28;9472;-79
2023/11/03 15:01:07;;;;;;;;;1.25;1.25;;;;;;;;5051030;28;9458;-80